Time;durP1;ratioP1;P1;durP2;ratioP2;P2;SDS_P1;SDS_P2;PMS_P1;PMS_P2;Temp;Humidity;BMP_temperature;BMP_pressure;BME280_temperature;BME280_humidity;BME280_pressure;Samples;Min_cycle;Max_cycle;Signal;HPM_P1;HPM_P2
2024/04/17 00:00:39;;;;;;;0.93;0.73;;;;;;;21.97;29.88;99788.47;4873205;26;20022;-52
2024/04/17 00:02:49;;;;;;;1.65;0.80;;;;;;;21.96;29.71;99786.78;4868444;26;20011;-53
2024/04/17 00:05:00;;;;;;;1.00;0.70;;;;;;;21.96;29.90;99785.97;4864649;26;21208;-54
2024/04/17 00:07:10;;;;;;;1.10;0.63;;;;;;;21.96;29.83;99783.91;4882813;26;20011;-52
2024/04/17 00:09:20;;;;;;;1.55;0.60;;;;;;;21.95;29.82;99788.00;4866171;26;20016;-54
2024/04/17 00:11:31;;;;;;;0.73;0.68;;;;;;;21.96;29.86;99794.59;4867118;26;20026;-52
2024/04/17 00:13:41;;;;;;;0.63;0.50;;;;;;;21.95;29.94;99793.75;4867885;26;20043;-53
2024/04/17 00:15:52;;;;;;;0.82;0.57;;;;;;;21.94;29.69;99783.50;4866854;26;20011;-52
2024/04/17 00:18:02;;;;;;;0.98;0.60;;;;;;;21.96;29.64;99783.09;4872302;26;20442;-51
2024/04/17 00:20:12;;;;;;;1.17;0.75;;;;;;;21.94;29.67;99797.03;4868648;26;20020;-53
2024/04/17 00:22:23;;;;;;;0.90;0.65;;;;;;;21.93;29.75;99795.38;4868065;26;20014;-52
2024/04/17 00:24:33;;;;;;;1.42;0.70;;;;;;;21.94;29.60;99785.53;4867152;26;20023;-52
2024/04/17 00:26:44;;;;;;;1.55;0.80;;;;;;;21.93;29.94;99787.56;4876041;26;20416;-56
2024/04/17 00:28:54;;;;;;;1.65;0.70;;;;;;;21.93;29.60;99796.19;4866090;26;25860;-52
2024/04/17 00:31:05;;;;;;;1.35;0.70;;;;;;;21.93;29.64;99790.44;4866985;26;20373;-56
2024/04/17 00:33:15;;;;;;;1.35;0.60;;;;;;;21.92;29.53;99793.72;4865958;26;20021;-56
2024/04/17 00:35:26;;;;;;;1.73;0.70;;;;;;;21.90;29.65;99794.13;4866474;26;20475;-54
2024/04/17 00:37:36;;;;;;;1.23;0.75;;;;;;;21.92;29.50;99803.19;4865956;26;20020;-53
2024/04/17 00:39:47;;;;;;;0.88;0.60;;;;;;;21.92;29.62;99800.31;4866693;26;20015;-54
2024/04/17 00:41:57;;;;;;;1.52;0.70;;;;;;;21.91;29.22;99803.56;4866716;26;20084;-51
2024/04/17 00:44:07;;;;;;;0.77;0.63;;;;;;;21.90;29.65;99802.75;4865073;26;21529;-54
2024/04/17 00:46:18;;;;;;;0.75;0.50;;;;;;;21.90;29.58;99808.47;4866706;26;20023;-53
2024/04/17 00:48:28;;;;;;;1.23;0.73;;;;;;;21.90;29.62;99805.63;4867051;26;20679;-52
2024/04/17 00:50:47;;;;;;;0.82;0.60;;;;;;;21.90;29.65;99808.47;4864210;26;20035;-53
2024/04/17 00:52:58;;;;;;;0.77;0.60;;;;;;;21.88;29.36;99813.78;4881727;26;20171;-52
2024/04/17 00:55:08;;;;;;;1.60;0.80;;;;;;;21.89;29.69;99812.59;4866200;26;20110;-55
2024/04/17 00:57:21;;;;;;;1.05;0.60;;;;;;;21.88;29.51;99808.03;4865459;26;20083;-52
2024/04/17 00:59:31;;;;;;;1.23;0.80;;;;;;;21.89;29.65;99818.34;4866690;26;20104;-55
2024/04/17 01:01:41;;;;;;;1.10;0.70;;;;;;;21.88;29.58;99808.03;4867581;26;20014;-54
2024/04/17 01:03:52;;;;;;;0.95;0.68;;;;;;;21.87;29.67;99815.03;4865979;26;20069;-53
2024/04/17 01:06:02;;;;;;;1.20;0.68;;;;;;;21.88;29.84;99816.66;4868506;26;20018;-51
2024/04/17 01:08:14;;;;;;;1.13;0.73;;;;;;;21.87;29.52;99826.50;4872788;26;20015;-52
2024/04/17 01:10:24;;;;;;;1.65;0.88;;;;;;;21.87;29.37;99826.50;4865987;26;20026;-54
2024/04/17 01:12:35;;;;;;;1.35;0.80;;;;;;;21.87;29.40;99819.94;4864153;26;20467;-53
2024/04/17 01:14:46;;;;;;;1.50;0.70;;;;;;;21.86;29.22;99824.88;4864855;26;20978;-51
2024/04/17 01:16:56;;;;;;;1.02;0.70;;;;;;;21.86;29.33;99819.13;4865619;26;20033;-55
2024/04/17 01:19:09;;;;;;;0.60;0.60;;;;;;;21.86;29.32;99818.28;4865283;26;20019;-52
2024/04/17 01:21:19;;;;;;;1.75;0.80;;;;;;;21.85;29.31;99808.84;4864976;26;21017;-54
2024/04/17 01:23:29;;;;;;;1.58;0.68;;;;;;;21.85;29.29;99810.91;4866293;26;20027;-51
2024/04/17 01:25:40;;;;;;;1.05;0.70;;;;;;;21.84;29.25;99815.81;4866922;26;20008;-52
2024/04/17 01:27:50;;;;;;;0.82;0.70;;;;;;;21.84;29.11;99810.06;4867850;26;20016;-52
2024/04/17 01:30:01;;;;;;;1.50;0.80;;;;;;;21.84;28.91;99815.81;4866204;26;20023;-54
2024/04/17 01:32:11;;;;;;;0.90;0.63;;;;;;;21.83;29.43;99817.03;4865683;26;20022;-54
2024/04/17 01:34:21;;;;;;;1.33;0.63;;;;;;;21.83;29.14;99817.03;4881851;26;20028;-52
2024/04/17 01:36:32;;;;;;;1.83;0.80;;;;;;;21.83;29.37;99813.34;4867899;26;20012;-52
2024/04/17 01:38:42;;;;;;;0.95;0.77;;;;;;;21.83;29.22;99821.97;4872311;26;20007;-54
2024/04/17 01:40:52;;;;;;;1.42;0.70;;;;;;;21.83;28.95;99813.34;4868574;26;20425;-54
2024/04/17 01:43:03;;;;;;;0.98;0.80;;;;;;;21.82;29.10;99812.50;4868609;26;20402;-54
2024/04/17 01:45:13;;;;;;;1.20;0.85;;;;;;;21.83;28.95;99813.34;4869418;26;20406;-52
2024/04/17 01:47:24;;;;;;;1.52;0.80;;;;;;;21.83;29.11;99813.34;4867586;26;20059;-55
2024/04/17 01:49:34;;;;;;;0.88;0.73;;;;;;;21.81;28.93;99813.75;4869159;26;20026;-53
2024/04/17 01:51:45;;;;;;;1.35;0.80;;;;;;;21.81;29.21;99812.91;4868667;26;20038;-56
2024/04/17 01:53:55;;;;;;;0.88;0.70;;;;;;;21.80;28.81;99811.25;4866419;26;20466;-51
2024/04/17 01:56:06;;;;;;;0.98;0.70;;;;;;;21.80;29.04;99817.81;4867428;26;20451;-52
2024/04/17 01:58:16;;;;;;;0.98;0.80;;;;;;;21.81;28.92;99821.53;4866752;26;20467;-54
2024/04/17 02:00:26;;;;;;;1.85;0.80;;;;;;;21.79;28.83;99819.03;4871901;26;20595;-54
2024/04/17 02:02:37;;;;;;;1.77;0.75;;;;;;;21.79;29.10;99813.28;4869440;26;20015;-53
2024/04/17 02:04:47;;;;;;;2.55;0.80;;;;;;;21.79;28.68;99810.41;4872101;26;22599;-54
2024/04/17 02:06:58;;;;;;;1.65;0.80;;;;;;;21.79;28.79;99819.03;4869186;26;20011;-52
2024/04/17 02:09:08;;;;;;;0.98;0.80;;;;;;;21.78;28.83;99817.41;4865414;26;20007;-51
2024/04/17 02:11:18;;;;;;;1.33;0.63;;;;;;;21.79;29.03;99818.19;4866376;26;20019;-54
2024/04/17 02:13:29;;;;;;;1.05;0.70;;;;;;;21.78;28.63;99823.16;4871425;26;20026;-53
2024/04/17 02:15:39;;;;;;;1.10;0.70;;;;;;;21.78;28.71;99831.75;4869146;26;20007;-52
2024/04/17 02:17:50;;;;;;;1.02;0.80;;;;;;;21.77;28.87;99815.72;4867668;26;26273;-54
2024/04/17 02:20:00;;;;;;;1.42;0.70;;;;;;;21.77;28.94;99820.66;4866954;26;20016;-55
2024/04/17 02:22:10;;;;;;;1.88;0.60;;;;;;;21.78;28.57;99825.19;4871073;26;20420;-52
2024/04/17 02:24:21;;;;;;;1.83;0.80;;;;;;;21.77;28.97;99824.34;4869186;26;20169;-55
2024/04/17 02:26:31;;;;;;;0.80;0.70;;;;;;;21.76;28.60;99830.47;4867751;26;20014;-52
2024/04/17 02:28:42;;;;;;;1.55;0.85;;;;;;;21.76;28.67;99824.75;4868878;26;20030;-51
2024/04/17 02:30:52;;;;;;;1.08;0.80;;;;;;;21.75;29.05;99825.94;4865151;26;20471;-54
2024/04/17 02:33:03;;;;;;;1.10;0.80;;;;;;;21.75;29.00;99829.69;4869310;26;20425;-55
2024/04/17 02:35:13;;;;;;;0.85;0.80;;;;;;;21.76;28.74;99824.75;4868121;26;20027;-54
2024/04/17 02:37:24;;;;;;;1.40;0.80;;;;;;;21.74;28.66;99825.09;4868466;26;20082;-55
2024/04/17 02:39:34;;;;;;;1.15;0.70;;;;;;;21.74;28.47;99825.09;4867604;26;20012;-55
2024/04/17 02:41:45;;;;;;;1.48;0.80;;;;;;;21.74;28.50;99821.44;4867985;26;20015;-51
2024/04/17 02:43:55;;;;;;;1.13;0.80;;;;;;;21.74;28.72;99821.44;4867904;26;20008;-52
2024/04/17 02:46:05;;;;;;;1.20;0.70;;;;;;;21.73;28.77;99828.38;4872888;26;20011;-53
2024/04/17 02:48:16;;;;;;;0.88;0.75;;;;;;;21.72;28.91;99823.84;4865565;26;20008;-56
2024/04/17 02:50:26;;;;;;;1.70;0.77;;;;;;;21.72;28.76;99830.41;4868309;26;20019;-52
2024/04/17 02:52:36;;;;;;;1.70;0.90;;;;;;;21.72;28.92;99827.53;4871589;26;20014;-54
2024/04/17 02:54:47;;;;;;;1.70;0.85;;;;;;;21.71;29.23;99828.75;4867227;26;20051;-54
2024/04/17 02:56:57;;;;;;;2.15;1.00;;;;;;;21.72;28.30;99830.41;4867174;26;20022;-55
2024/04/17 02:59:08;;;;;;;1.35;0.93;;;;;;;21.72;28.77;99841.09;4868578;26;20471;-56
2024/04/17 03:01:18;;;;;;;1.25;0.80;;;;;;;21.70;28.69;99838.63;4868326;26;20348;-55
2024/04/17 03:03:28;;;;;;;1.67;0.80;;;;;;;21.70;28.38;99837.78;4868083;26;20026;-51
2024/04/17 03:05:39;;;;;;;1.73;0.80;;;;;;;21.70;28.75;99838.63;4867055;26;21817;-54
2024/04/17 03:07:49;;;;;;;1.63;0.90;;;;;;;21.70;28.61;99838.63;4868811;26;20023;-53
2024/04/17 03:09:59;;;;;;;1.65;0.90;;;;;;;21.69;28.71;99845.56;4870762;26;20004;-53
2024/04/17 03:12:10;;;;;;;1.02;0.80;;;;;;;21.69;28.62;99844.75;4867376;26;20015;-51
2024/04/17 03:14:20;;;;;;;1.70;0.90;;;;;;;21.69;28.33;99847.63;4866164;26;20061;-53
2024/04/17 03:16:31;;;;;;;1.75;0.90;;;;;;;21.69;28.38;99844.75;4867293;26;20011;-52
2024/04/17 03:18:41;;;;;;;1.35;0.90;;;;;;;21.68;28.62;99843.91;4869209;26;21024;-54
2024/04/17 03:20:51;;;;;;;2.45;0.98;;;;;;;21.68;28.32;99845.94;4866702;26;20038;-53
2024/04/17 03:23:02;;;;;;;0.98;0.80;;;;;;;21.67;28.69;99842.28;4868550;26;20521;-55
2024/04/17 03:25:12;;;;;;;1.05;0.80;;;;;;;21.68;28.46;99857.44;4869336;26;20011;-53
2024/04/17 03:27:23;;;;;;;1.95;0.90;;;;;;;21.67;28.33;99844.31;4869024;26;20007;-52
2024/04/17 03:29:33;;;;;;;1.33;0.80;;;;;;;21.67;28.78;99850.06;4867582;26;20018;-54
2024/04/17 03:31:43;;;;;;;1.05;0.80;;;;;;;21.66;28.63;99852.09;4866864;26;20052;-52
2024/04/17 03:33:54;;;;;;;1.40;0.85;;;;;;;21.66;28.71;99859.91;4867626;26;20016;-53
2024/04/17 03:36:04;;;;;;;2.42;0.98;;;;;;;21.66;28.34;99854.16;4868782;26;21957;-54
2024/04/17 03:38:15;;;;;;;1.58;0.80;;;;;;;21.65;28.38;99859.06;4866561;26;20011;-52
2024/04/17 03:40:25;;;;;;;2.38;1.00;;;;;;;21.65;28.54;99869.72;4867438;26;20022;-53
2024/04/17 03:42:36;;;;;;;1.20;0.88;;;;;;;21.65;28.64;99864.81;4868342;26;20007;-52
2024/04/17 03:44:46;;;;;;;0.85;0.80;;;;;;;21.65;28.38;99869.72;4866206;26;20007;-53
2024/04/17 03:46:57;;;;;;;1.70;0.82;;;;;;;21.64;28.43;99868.06;4867908;26;21289;-55
2024/04/17 03:49:07;;;;;;;1.20;0.90;;;;;;;21.64;28.61;99868.06;4868682;26;20023;-53
2024/04/17 03:51:17;;;;;;;2.25;0.95;;;;;;;21.64;28.72;99868.91;4866576;26;20022;-56
2024/04/17 03:53:28;;;;;;;0.95;0.80;;;;;;;21.64;28.51;99871.78;4865496;26;20008;-54
2024/04/17 03:55:38;;;;;;;1.55;0.93;;;;;;;21.63;28.28;99870.09;4866854;26;20110;-53
2024/04/17 03:57:49;;;;;;;1.73;0.85;;;;;;;21.63;28.43;99872.97;4868977;26;22208;-55
2024/04/17 03:59:59;;;;;;;1.20;0.90;;;;;;;21.63;28.34;99878.72;4867793;26;20058;-51
2024/04/17 04:02:09;;;;;;;1.65;0.80;;;;;;;21.62;28.56;99876.25;4866432;26;20012;-51
2024/04/17 04:04:20;;;;;;;1.35;0.82;;;;;;;21.62;28.18;99870.50;4867695;26;20008;-56
2024/04/17 04:06:30;;;;;;;1.70;0.93;;;;;;;21.61;28.21;99869.66;4869324;26;20491;-53
2024/04/17 04:08:41;;;;;;;1.92;1.00;;;;;;;21.62;28.17;99882.00;4864928;26;20018;-52
2024/04/17 04:10:51;;;;;;;2.05;1.10;;;;;;;21.61;27.91;99874.59;4867037;26;20080;-55
2024/04/17 04:13:01;;;;;;;1.63;1.00;;;;;;;21.60;28.11;99885.25;4866181;26;20011;-55
2024/04/17 04:15:12;;;;;;;1.55;1.05;;;;;;;21.61;28.06;99888.97;4864927;26;20380;-54
2024/04/17 04:17:22;;;;;;;1.95;1.10;;;;;;;21.60;28.01;99891.00;4867371;26;20018;-52
2024/04/17 04:19:33;;;;;;;2.53;1.38;;;;;;;21.58;27.87;99890.56;4867223;26;20044;-53
2024/04/17 04:21:43;;;;;;;1.45;0.80;;;;;;;21.58;28.02;99887.69;4864992;26;20051;-52
2024/04/17 04:23:53;;;;;;;1.77;0.95;;;;;;;21.58;27.96;99893.44;4867447;26;20022;-55
2024/04/17 04:26:04;;;;;;;1.75;1.00;;;;;;;21.57;28.43;99891.78;4864150;26;20372;-56
2024/04/17 04:28:14;;;;;;;1.77;1.00;;;;;;;21.57;28.28;99891.78;4865997;26;20012;-55
2024/04/17 04:30:25;;;;;;;1.92;1.10;;;;;;;21.57;28.22;99891.78;4868159;26;20012;-51
2024/04/17 04:32:35;;;;;;;2.63;1.00;;;;;;;21.57;28.22;99888.06;4867077;26;20007;-54
2024/04/17 04:34:45;;;;;;;2.28;1.05;;;;;;;21.56;28.03;99887.28;4871892;26;20017;-51
2024/04/17 04:36:56;;;;;;;1.88;0.80;;;;;;;21.55;28.11;99888.47;4866897;26;20655;-55
2024/04/17 04:39:06;;;;;;;1.40;0.90;;;;;;;21.56;27.65;99887.28;4867043;26;20012;-53
2024/04/17 04:41:17;;;;;;;1.55;1.00;;;;;;;21.55;28.46;99891.34;4866992;26;20016;-54
2024/04/17 04:43:28;;;;;;;2.28;1.00;;;;;;;21.55;28.14;99897.09;4872072;26;20019;-51
2024/04/17 04:45:38;;;;;;;1.98;0.70;;;;;;;21.54;27.83;99892.56;4865071;26;20019;-53
2024/04/17 04:47:48;;;;;;;1.73;0.90;;;;;;;21.54;28.15;99897.47;4865858;26;20023;-52
2024/04/17 04:49:59;;;;;;;0.93;0.70;;;;;;;21.54;27.60;99895.44;4868460;26;20058;-55
2024/04/17 04:52:09;;;;;;;1.52;1.00;;;;;;;21.54;27.85;99900.34;4865079;26;20007;-55
2024/04/17 04:54:20;;;;;;;1.50;1.10;;;;;;;21.53;27.86;99896.63;4869233;26;20542;-55
2024/04/17 04:56:30;;;;;;;1.80;1.13;;;;;;;21.53;28.10;99905.25;4865532;26;20545;-54
2024/04/17 04:58:42;;;;;;;1.58;0.90;;;;;;;21.53;27.74;99895.84;4867991;26;21065;-53
2024/04/17 05:00:52;;;;;;;2.75;0.95;;;;;;;21.52;27.76;99900.75;4863810;26;20022;-55
2024/04/17 05:03:03;;;;;;;1.80;1.00;;;;;;;21.52;28.12;99897.88;4866351;26;20352;-52
2024/04/17 05:19:13;;;;;;;4.18;1.90;;;;;;;21.49;28.26;99904.41;4866150;26;20016;-56
2024/04/17 05:22:13;;;;;;;2.92;1.50;;;;;;;21.50;28.32;99908.91;4866803;26;20874;-52
2024/04/17 05:25:15;;;;;;;1.70;1.33;;;;;;;21.49;28.35;99907.25;4866727;26;20008;-54
2024/04/17 05:42:14;;;;;;;1.33;0.90;;;;;;;21.47;28.58;99915.44;4865777;26;20012;-56
2024/04/17 05:45:14;;;;;;;1.45;0.98;;;;;;;21.47;28.38;99914.63;4865128;26;20022;-56
2024/04/17 05:48:14;;;;;;;1.45;0.90;;;;;;;21.46;29.04;99922.41;4865623;26;20136;-55
2024/04/17 05:51:15;;;;;;;1.95;1.00;;;;;;;21.44;28.90;99916.22;4864032;26;20008;-56
2024/04/17 05:54:15;;;;;;;0.75;0.75;;;;;;;21.44;32.38;99927.69;4862398;26;20012;-54
2024/04/17 06:04:14;;;;;;;0.70;0.63;;;;;;;21.43;35.65;99928.94;4864488;26;20012;-56
2024/04/17 06:07:14;;;;;;;1.05;0.65;;;;;;;21.44;36.11;99930.56;4863476;26;20012;-55
2024/04/17 06:24:13;;;;;;;1.13;0.80;;;;;;;21.43;35.58;99948.19;4867162;26;20011;-55
2024/04/17 06:26:42;;;;;;;0.90;0.60;;;;;;;21.42;35.54;99947.34;4866455;26;20084;-56
2024/04/17 06:29:14;;;;;;;1.23;0.82;;;;;;;21.41;35.13;99942.84;4868697;26;20019;-54
2024/04/17 06:31:25;;;;;;;1.52;0.93;;;;;;;21.41;35.58;99948.56;4869035;26;20027;-55
2024/04/17 06:33:36;;;;;;;1.60;1.10;;;;;;;21.41;35.20;99950.63;4869059;26;20892;-54
2024/04/17 06:35:46;;;;;;;1.70;0.90;;;;;;;21.40;34.71;99948.97;4868330;26;20011;-55
2024/04/17 06:37:57;;;;;;;1.80;1.00;;;;;;;21.39;35.34;99953.88;4865862;26;20023;-52
2024/04/17 06:40:07;;;;;;;2.20;1.15;;;;;;;21.39;34.53;99947.31;4866529;26;20076;-51
2024/04/17 06:42:18;;;;;;;1.27;0.90;;;;;;;21.40;35.28;99943.22;4868476;26;20456;-55
2024/04/17 06:47:26;;;;;;;2.90;1.10;;;;;;;21.39;35.96;99953.06;4868202;26;21009;-54
2024/04/17 06:49:36;;;;;;;2.90;1.40;;;;;;;21.38;35.47;99955.09;4869611;26;20007;-55
2024/04/17 06:52:14;;;;;;;1.73;1.05;;;;;;;21.39;36.29;99956.75;4869160;26;20022;-50
2024/04/17 06:57:25;;;;;;;2.22;1.42;;;;;;;21.37;36.00;99950.59;4867803;26;19928;-52
2024/04/17 06:59:35;;;;;;;2.13;1.40;;;;;;;21.37;35.93;99956.31;4866660;26;20455;-53
2024/04/17 07:02:13;;;;;;;2.17;1.38;;;;;;;21.37;36.07;99955.50;4867686;26;20466;-54
2024/04/17 07:07:24;;;;;;;2.33;1.40;;;;;;;21.36;35.25;99953.84;4863151;26;19929;-54
2024/04/17 07:09:35;;;;;;;3.05;1.40;;;;;;;21.36;34.35;99954.66;4868313;26;20036;-53
2024/04/17 07:12:13;;;;;;;2.88;1.90;;;;;;;21.35;34.13;99955.88;4865761;26;20114;-52
2024/04/17 07:14:24;;;;;;;2.30;1.67;;;;;;;21.34;33.96;99951.38;4867586;26;20008;-54
2024/04/17 07:16:34;;;;;;;3.10;1.60;;;;;;;21.34;35.00;99957.09;4867474;26;20015;-51
2024/04/17 07:18:46;;;;;;;2.28;1.60;;;;;;;21.34;34.79;99957.09;4865621;26;21239;-51
2024/04/17 07:20:56;;;;;;;2.17;1.33;;;;;;;21.34;34.82;99954.25;4867408;26;20965;-55
2024/04/17 07:23:06;;;;;;;2.30;1.50;;;;;;;21.34;34.58;99942.75;4865147;26;20101;-52
2024/04/17 07:25:17;;;;;;;2.65;1.58;;;;;;;21.33;35.03;99946.81;4864682;26;20596;-53
2024/04/17 07:27:27;;;;;;;2.42;1.65;;;;;;;21.33;35.13;99949.69;4866233;26;20457;-54
2024/04/17 07:29:38;;;;;;;2.90;1.60;;;;;;;21.32;34.63;99950.91;4869849;26;20496;-54
2024/04/17 07:31:48;;;;;;;1.88;1.60;;;;;;;21.32;35.30;99944.34;4868982;26;20343;-51
2024/04/17 07:34:14;;;;;;;3.33;1.50;;;;;;;21.32;36.01;99953.78;4868703;26;20121;-51
2024/04/17 07:36:24;;;;;;;2.70;1.60;;;;;;;21.32;36.46;99948.03;4866924;26;20011;-55
2024/04/17 07:39:16;;;;;;;2.03;1.30;;;;;;;21.32;36.85;99950.91;4867166;26;20012;-53
2024/04/17 07:41:26;;;;;;;2.33;1.42;;;;;;;21.29;36.49;99943.09;4866940;26;20015;-50
2024/04/17 07:43:36;;;;;;;2.50;1.58;;;;;;;21.30;36.11;99950.47;4864303;26;20456;-51
2024/04/17 07:45:51;;;;;;;3.28;1.70;;;;;;;21.31;36.63;99954.19;4867899;26;20022;-54
2024/04/17 07:48:13;;;;;;;2.03;1.45;;;;;;;21.31;37.04;99951.31;4867831;26;21091;-55
2024/04/17 07:51:14;;;;;;;4.05;1.73;;;;;;;21.31;37.15;99952.13;4865927;26;20014;-54
2024/04/17 07:54:14;;;;;;;2.20;1.55;;;;;;;21.32;37.79;99945.19;4870045;26;20022;-51
2024/04/17 07:57:14;;;;;;;2.30;1.67;;;;;;;21.33;37.54;99945.97;4867045;26;20104;-53
2024/04/17 08:02:25;;;;;;;2.70;1.70;;;;;;;21.35;38.79;99943.56;4864455;26;20012;-54
2024/04/17 08:04:35;;;;;;;2.72;1.50;;;;;;;21.34;37.28;99951.38;4868958;26;20012;-58
2024/04/17 08:06:45;;;;;;;2.63;1.55;;;;;;;21.36;38.04;99950.97;4865608;26;20028;-52
2024/04/17 08:08:56;;;;;;;2.83;1.40;;;;;;;21.36;37.83;99943.16;4868709;26;20520;-56
2024/04/17 08:11:06;;;;;;;2.45;1.45;;;;;;;21.37;38.67;99955.50;4866973;26;20018;-57
2024/04/17 08:13:17;;;;;;;1.83;1.17;;;;;;;21.37;38.27;99952.63;4867453;26;20023;-55
2024/04/17 08:15:27;;;;;;;2.17;1.25;;;;;;;21.38;38.04;99952.22;4866682;26;20026;-55
2024/04/17 08:17:37;;;;;;;2.17;1.20;;;;;;;21.39;38.67;99951.00;4867253;26;20028;-56
2024/04/17 08:19:48;;;;;;;1.58;1.00;;;;;;;21.40;38.72;99946.94;4871400;26;20076;-53
2024/04/17 08:21:58;;;;;;;2.10;1.20;;;;;;;21.40;37.38;99946.09;4868116;26;20081;-52
2024/04/17 08:24:09;;;;;;;2.00;1.20;;;;;;;21.40;37.06;99946.94;4871787;26;20023;-54
2024/04/17 08:26:19;;;;;;;2.83;1.23;;;;;;;21.42;37.05;99949.41;4865992;26;20016;-55
2024/04/17 08:28:29;;;;;;;1.73;1.30;;;;;;;21.42;36.73;99947.34;4869842;26;20026;-52
2024/04/17 08:30:40;;;;;;;1.23;1.00;;;;;;;21.43;36.79;99949.03;4868652;26;20069;-51
2024/04/17 08:32:50;;;;;;;1.65;1.05;;;;;;;21.43;36.27;99951.06;4865790;26;20080;-55
2024/04/17 08:35:00;;;;;;;2.15;1.40;;;;;;;21.44;36.43;99949.84;4866085;26;20012;-54
2024/04/17 08:37:11;;;;;;;1.17;1.00;;;;;;;21.43;36.84;99943.28;4865745;26;20016;-52
2024/04/17 08:39:21;;;;;;;2.05;1.10;;;;;;;21.43;36.88;99951.91;4867115;26;20452;-54
2024/04/17 08:41:34;;;;;;;2.13;1.20;;;;;;;21.43;35.86;99951.91;4868340;26;20048;-53
2024/04/17 08:43:45;;;;;;;1.75;1.10;;;;;;;21.43;36.14;99960.50;4866578;26;20023;-51
2024/04/17 08:45:56;;;;;;;2.00;0.90;;;;;;;21.44;35.81;99952.69;4863316;26;20015;-51
2024/04/17 08:48:09;;;;;;;1.98;1.00;;;;;;;21.43;34.97;99951.91;4865916;26;20364;-55
2024/04/17 08:50:20;;;;;;;1.73;0.80;;;;;;;21.45;34.80;99963.00;4867815;26;20067;-57
2024/04/17 08:52:34;;;;;;;1.85;1.15;;;;;;;21.45;35.02;99965.84;4868695;26;20026;-58
2024/04/17 08:54:46;;;;;;;2.03;1.10;;;;;;;21.46;34.75;99967.50;4863804;26;20093;-55
2024/04/17 08:56:56;;;;;;;2.15;1.15;;;;;;;21.46;34.07;99965.47;4868625;26;20023;-55
2024/04/17 08:59:08;;;;;;;2.00;0.90;;;;;;;21.45;36.21;99968.72;4866255;26;20019;-52
2024/04/17 09:01:20;;;;;;;1.75;0.80;;;;;;;21.46;34.63;99967.50;4866317;26;20022;-55
2024/04/17 09:03:33;;;;;;;2.10;1.10;;;;;;;21.46;35.23;99968.34;4867936;26;20042;-54
2024/04/17 09:05:44;;;;;;;1.90;0.77;;;;;;;21.46;34.56;99971.22;4863317;26;20082;-52
2024/04/17 09:07:58;;;;;;;1.02;0.80;;;;;;;21.47;35.23;99970.00;4869715;26;20022;-57
2024/04/17 09:10:09;;;;;;;2.25;0.88;;;;;;;21.47;34.53;99975.72;4865616;26;20020;-55
2024/04/17 09:12:21;;;;;;;1.30;0.80;;;;;;;21.48;34.01;99974.53;4863738;26;20050;-53
2024/04/17 09:14:32;;;;;;;2.05;0.80;;;;;;;21.48;34.13;99974.53;4864874;26;20012;-54
2024/04/17 09:16:42;;;;;;;0.85;0.60;;;;;;;21.49;33.90;99970.44;4864768;26;20012;-56
2024/04/17 09:18:54;;;;;;;1.00;0.60;;;;;;;21.51;34.97;99979.50;4867864;26;20011;-52
2024/04/17 09:24:24;;;;;;;0.57;0.40;;;;;;;21.51;34.75;99973.75;4864365;26;20015;-56
2024/04/17 09:26:35;;;;;;;0.80;0.50;;;;;;;21.52;35.44;99975.41;4865371;26;20020;-52
2024/04/17 09:28:45;;;;;;;0.95;0.52;;;;;;;21.53;34.40;99977.03;4865984;26;20019;-50
2024/04/17 09:30:56;;;;;;;1.23;0.60;;;;;;;21.55;35.47;99980.34;4866817;26;21315;-54
2024/04/17 09:33:09;;;;;;;1.63;0.65;;;;;;;21.55;34.67;99982.44;4866082;26;20026;-56
2024/04/17 09:35:22;;;;;;;1.83;0.80;;;;;;;21.55;35.15;99979.56;4867994;26;20008;-53
2024/04/17 09:37:33;;;;;;;2.15;0.70;;;;;;;21.55;34.68;99971.75;4867634;26;20015;-51
2024/04/17 09:39:43;;;;;;;0.57;0.40;;;;;;;21.55;33.95;99976.69;4864326;26;20016;-51
2024/04/17 09:41:54;;;;;;;0.60;0.40;;;;;;;21.57;33.92;99971.34;4860197;26;20022;-54
2024/04/17 09:44:08;;;;;;;0.43;0.40;;;;;;;21.57;35.43;99972.19;4870076;26;20081;-55
2024/04/17 09:46:20;;;;;;;0.38;0.38;;;;;;;21.58;34.73;99970.97;4863626;26;20578;-56
2024/04/17 09:48:30;;;;;;;1.40;0.60;;;;;;;21.57;36.35;99963.56;4868393;26;20705;-54
2024/04/17 09:50:42;;;;;;;0.60;0.30;;;;;;;21.56;34.94;99973.41;4863623;26;20012;-54
2024/04/17 09:52:58;;;;;;;1.15;0.40;;;;;;;21.57;34.82;99960.69;4866943;26;20011;-49
2024/04/17 09:55:09;;;;;;;0.70;0.55;;;;;;;21.58;35.06;99968.09;4863387;26;20026;-52
2024/04/17 09:57:19;;;;;;;0.95;0.50;;;;;;;21.59;35.24;99963.19;4866834;26;20016;-53
2024/04/17 09:59:30;;;;;;;0.73;0.43;;;;;;;21.63;35.50;99975.53;4866336;26;20011;-50
2024/04/17 10:02:16;;;;;;;1.25;0.40;;;;;;;21.64;34.88;99972.31;4864918;26;20023;-50
2024/04/17 10:04:28;;;;;;;0.70;0.50;;;;;;;21.65;34.92;99962.47;4870978;26;20022;-53
2024/04/17 10:06:39;;;;;;;1.15;0.50;;;;;;;21.66;34.96;99972.72;4866369;26;20012;-51
2024/04/17 10:08:52;;;;;;;0.32;0.32;;;;;;;21.65;35.80;99968.19;4871961;26;20026;-50
2024/04/17 10:11:04;;;;;;;0.45;0.28;;;;;;;21.66;35.28;99969.03;4869916;26;20011;-50
2024/04/17 10:13:15;;;;;;;0.63;0.40;;;;;;;21.66;35.43;99966.97;4885873;26;20690;-52
2024/04/17 10:15:26;;;;;;;0.73;0.40;;;;;;;21.67;34.54;99967.81;4867440;26;20115;-51
2024/04/17 10:17:36;;;;;;;0.95;0.40;;;;;;;21.68;35.62;99973.16;4866433;26;20677;-52
2024/04/17 10:20:15;;;;;;;0.45;0.45;;;;;;;21.70;35.79;99970.75;4865702;26;20089;-55
2024/04/17 10:22:27;;;;;;;0.70;0.52;;;;;;;21.70;35.49;99970.75;4871165;26;20058;-54
2024/04/17 10:24:37;;;;;;;1.02;0.55;;;;;;;21.69;34.80;99971.94;4868898;26;20007;-54
2024/04/17 10:26:57;;;;;;;0.47;0.40;;;;;;;21.71;35.02;99966.63;4868739;26;20341;-54
2024/04/17 10:29:17;;;;;;;0.60;0.50;;;;;;;21.72;35.35;99974.03;4869931;26;20007;-54
2024/04/17 10:35:14;;;;;;;0.68;0.40;;;;;;;21.74;35.81;99965.84;4867407;26;20980;-55
2024/04/17 10:38:14;;;;;;;0.65;0.35;;;;;;;21.77;35.41;99973.72;4865337;26;20012;-53
2024/04/17 10:41:15;;;;;;;0.50;0.40;;;;;;;21.78;33.99;99963.06;4884828;26;20015;-56
2024/04/17 10:44:15;;;;;;;0.40;0.38;;;;;;;21.78;35.00;99972.53;4851530;26;20989;-56
2024/04/17 10:49:23;;;;;;;0.47;0.32;;;;;;;21.80;34.66;99964.31;4868214;26;20869;-53
2024/04/17 10:51:34;;;;;;;0.40;0.32;;;;;;;21.81;34.65;99959.41;4870452;26;20011;-54
2024/04/17 10:53:46;;;;;;;0.70;0.30;;;;;;;21.81;34.59;99960.25;4868282;26;20080;-55
2024/04/17 10:55:58;;;;;;;0.60;0.40;;;;;;;21.82;34.93;99961.88;4866709;26;20015;-57
2024/04/17 10:58:12;;;;;;;0.68;0.40;;;;;;;21.83;34.97;99957.81;4866829;26;20096;-56
2024/04/17 11:00:22;;;;;;;0.70;0.40;;;;;;;21.83;33.80;99954.94;4866444;26;20081;-54
2024/04/17 11:03:13;;;;;;;0.30;0.30;;;;;;;21.86;34.00;99967.69;4868242;26;20079;-56
2024/04/17 11:05:25;;;;;;;0.35;0.30;;;;;;;21.86;34.54;99968.53;4867996;26;20019;-56
2024/04/17 11:07:36;;;;;;;0.35;0.30;;;;;;;21.86;34.77;99959.91;4866575;26;20026;-55
2024/04/17 11:10:15;;;;;;;0.50;0.40;;;;;;;21.88;35.07;99966.06;4867067;26;20830;-54
2024/04/17 11:13:15;;;;;;;0.80;0.50;;;;;;;21.87;33.85;99964.41;4866945;26;20015;-54
2024/04/17 11:16:16;;;;;;;0.30;0.30;;;;;;;21.88;34.24;99968.94;4867159;26;20030;-55
2024/04/17 11:19:13;;;;;;;0.88;0.35;;;;;;;21.88;34.82;99948.03;4866926;26;20022;-57
2024/04/17 11:22:13;;;;;;;0.40;0.30;;;;;;;21.89;34.44;99961.16;4865859;26;20012;-55
2024/04/17 11:25:13;;;;;;;0.20;0.20;;;;;;;21.88;32.41;99954.56;4869536;26;20066;-52
2024/04/17 11:28:14;;;;;;;0.60;0.40;;;;;;;21.87;31.98;99952.94;4865382;26;20053;-54
2024/04/17 11:31:14;;;;;;;0.20;0.20;;;;;;;21.88;31.69;99957.44;4867460;26;20019;-54
2024/04/17 11:37:16;;;;;;;1.40;0.90;;;;;;;21.88;31.66;99960.31;4866471;26;21586;-62
2024/04/17 11:40:16;;;;;;;0.38;0.20;;;;;;;21.89;31.98;99956.25;4814546;26;21114;-58
2024/04/17 11:43:13;;;;;;;0.43;0.40;;;;;;;21.89;31.45;99950.50;4826679;26;20008;-57
2024/04/17 11:46:14;;;;;;;0.93;0.30;;;;;;;21.91;31.74;99952.97;4822240;26;20620;-59
2024/04/17 11:49:15;;;;;;;1.02;0.60;;;;;;;21.91;31.16;99947.22;4858709;26;20067;-60
2024/04/17 11:52:15;;;;;;;0.20;0.20;;;;;;;21.91;31.37;99952.97;4854614;26;20016;-55
2024/04/17 11:55:15;;;;;;;0.57;0.30;;;;;;;21.90;31.54;99946.41;4853814;26;20030;-60
2024/04/17 11:57:28;;;;;;;0.30;0.30;;;;;;;21.90;31.71;99946.41;4881673;26;20033;-58
2024/04/17 12:00:15;;;;;;;0.50;0.50;;;;;;;21.90;31.91;99948.44;4854038;26;20015;-57